sensor_id;sensor_type;location;lat;lon;timestamp;P1;durP1;ratioP1;P2;durP2;ratioP2
313;SDS011;143;51.634;7.112;2023-11-19T00:00:05;8.13;;;7.50;;
313;SDS011;143;51.634;7.112;2023-11-19T00:02:35;9.07;;;7.93;;
313;SDS011;143;51.634;7.112;2023-11-19T00:05:01;12.10;;;9.00;;
313;SDS011;143;51.634;7.112;2023-11-19T00:07:27;15.17;;;11.40;;
313;SDS011;143;51.634;7.112;2023-11-19T00:09:53;13.63;;;11.10;;
313;SDS011;143;51.634;7.112;2023-11-19T00:12:20;15.80;;;10.77;;
313;SDS011;143;51.634;7.112;2023-11-19T00:14:45;15.80;;;12.70;;
313;SDS011;143;51.634;7.112;2023-11-19T00:17:11;19.20;;;13.77;;
313;SDS011;143;51.634;7.112;2023-11-19T00:19:36;21.37;;;14.43;;
313;SDS011;143;51.634;7.112;2023-11-19T00:22:02;19.93;;;14.80;;
313;SDS011;143;51.634;7.112;2023-11-19T00:24:28;23.03;;;15.00;;
313;SDS011;143;51.634;7.112;2023-11-19T00:26:55;20.87;;;15.77;;
313;SDS011;143;51.634;7.112;2023-11-19T00:29:21;21.97;;;15.93;;
313;SDS011;143;51.634;7.112;2023-11-19T00:31:47;24.20;;;17.30;;
313;SDS011;143;51.634;7.112;2023-11-19T00:34:13;26.93;;;18.60;;
313;SDS011;143;51.634;7.112;2023-11-19T00:36:38;26.37;;;19.33;;
313;SDS011;143;51.634;7.112;2023-11-19T00:39:04;29.13;;;18.73;;
313;SDS011;143;51.634;7.112;2023-11-19T00:41:30;29.43;;;19.50;;
313;SDS011;143;51.634;7.112;2023-11-19T00:43:56;24.57;;;18.60;;
313;SDS011;143;51.634;7.112;2023-11-19T00:46:22;28.77;;;18.63;;
313;SDS011;143;51.634;7.112;2023-11-19T00:48:47;24.00;;;17.87;;
313;SDS011;143;51.634;7.112;2023-11-19T00:51:13;26.63;;;18.87;;
313;SDS011;143;51.634;7.112;2023-11-19T00:53:39;26.60;;;18.80;;
313;SDS011;143;51.634;7.112;2023-11-19T00:56:04;23.97;;;18.07;;
313;SDS011;143;51.634;7.112;2023-11-19T00:58:30;25.50;;;18.83;;
313;SDS011;143;51.634;7.112;2023-11-19T01:00:57;27.30;;;19.83;;
313;SDS011;143;51.634;7.112;2023-11-19T01:03:22;27.50;;;20.00;;
313;SDS011;143;51.634;7.112;2023-11-19T01:05:48;26.80;;;19.87;;
313;SDS011;143;51.634;7.112;2023-11-19T01:08:13;23.70;;;18.50;;
313;SDS011;143;51.634;7.112;2023-11-19T01:10:41;28.27;;;19.40;;
313;SDS011;143;51.634;7.112;2023-11-19T01:13:06;20.17;;;16.00;;
313;SDS011;143;51.634;7.112;2023-11-19T01:15:32;25.80;;;18.00;;
313;SDS011;143;51.634;7.112;2023-11-19T01:17:58;23.50;;;17.37;;
313;SDS011;143;51.634;7.112;2023-11-19T01:20:23;24.97;;;17.73;;
313;SDS011;143;51.634;7.112;2023-11-19T01:22:49;24.27;;;18.10;;
313;SDS011;143;51.634;7.112;2023-11-19T01:25:16;21.00;;;15.30;;
313;SDS011;143;51.634;7.112;2023-11-19T01:27:41;21.03;;;15.40;;
313;SDS011;143;51.634;7.112;2023-11-19T01:30:07;21.90;;;16.83;;
313;SDS011;143;51.634;7.112;2023-11-19T01:32:38;21.03;;;15.13;;
313;SDS011;143;51.634;7.112;2023-11-19T01:35:04;17.33;;;13.23;;
313;SDS011;143;51.634;7.112;2023-11-19T01:37:29;15.13;;;12.07;;
313;SDS011;143;51.634;7.112;2023-11-19T01:39:57;20.43;;;13.67;;
313;SDS011;143;51.634;7.112;2023-11-19T01:42:22;20.33;;;11.97;;
313;SDS011;143;51.634;7.112;2023-11-19T01:44:54;18.10;;;12.60;;
313;SDS011;143;51.634;7.112;2023-11-19T01:47:24;20.23;;;12.30;;
313;SDS011;143;51.634;7.112;2023-11-19T01:49:53;22.17;;;12.17;;
313;SDS011;143;51.634;7.112;2023-11-19T01:52:21;16.83;;;11.43;;
313;SDS011;143;51.634;7.112;2023-11-19T01:54:47;18.87;;;10.47;;
313;SDS011;143;51.634;7.112;2023-11-19T01:57:13;16.70;;;10.70;;
313;SDS011;143;51.634;7.112;2023-11-19T01:59:39;14.73;;;10.23;;
313;SDS011;143;51.634;7.112;2023-11-19T02:02:07;15.57;;;9.80;;
313;SDS011;143;51.634;7.112;2023-11-19T02:04:32;12.20;;;9.63;;
313;SDS011;143;51.634;7.112;2023-11-19T02:06:59;11.70;;;9.10;;
313;SDS011;143;51.634;7.112;2023-11-19T02:09:25;12.50;;;9.17;;
313;SDS011;143;51.634;7.112;2023-11-19T02:11:52;11.53;;;8.30;;
313;SDS011;143;51.634;7.112;2023-11-19T02:14:18;12.73;;;7.87;;
313;SDS011;143;51.634;7.112;2023-11-19T02:16:46;7.60;;;7.07;;
313;SDS011;143;51.634;7.112;2023-11-19T02:19:12;13.03;;;7.83;;
313;SDS011;143;51.634;7.112;2023-11-19T02:21:38;13.23;;;8.00;;
313;SDS011;143;51.634;7.112;2023-11-19T02:24:04;17.70;;;8.43;;
313;SDS011;143;51.634;7.112;2023-11-19T02:26:47;12.33;;;7.23;;
313;SDS011;143;51.634;7.112;2023-11-19T02:29:25;12.87;;;8.00;;
313;SDS011;143;51.634;7.112;2023-11-19T02:31:50;12.63;;;7.47;;
313;SDS011;143;51.634;7.112;2023-11-19T02:34:16;16.20;;;8.17;;
313;SDS011;143;51.634;7.112;2023-11-19T02:36:41;10.93;;;7.73;;
313;SDS011;143;51.634;7.112;2023-11-19T02:39:07;12.13;;;7.27;;
313;SDS011;143;51.634;7.112;2023-11-19T02:41:36;14.27;;;7.60;;
313;SDS011;143;51.634;7.112;2023-11-19T02:44:04;11.23;;;7.97;;
313;SDS011;143;51.634;7.112;2023-11-19T02:46:31;19.13;;;7.93;;
313;SDS011;143;51.634;7.112;2023-11-19T02:48:57;12.53;;;6.97;;
313;SDS011;143;51.634;7.112;2023-11-19T02:51:22;14.93;;;7.47;;
313;SDS011;143;51.634;7.112;2023-11-19T02:53:48;12.93;;;6.70;;
313;SDS011;143;51.634;7.112;2023-11-19T02:56:13;12.77;;;6.20;;
313;SDS011;143;51.634;7.112;2023-11-19T02:58:50;30.87;;;6.50;;
313;SDS011;143;51.634;7.112;2023-11-19T03:01:22;19.17;;;6.40;;
313;SDS011;143;51.634;7.112;2023-11-19T03:03:54;12.17;;;6.20;;
313;SDS011;143;51.634;7.112;2023-11-19T03:06:21;11.53;;;6.03;;
313;SDS011;143;51.634;7.112;2023-11-19T03:08:47;13.13;;;6.00;;
313;SDS011;143;51.634;7.112;2023-11-19T03:11:13;19.33;;;6.43;;
313;SDS011;143;51.634;7.112;2023-11-19T03:13:39;13.70;;;5.33;;
313;SDS011;143;51.634;7.112;2023-11-19T03:16:05;13.17;;;4.80;;
313;SDS011;143;51.634;7.112;2023-11-19T03:18:30;13.67;;;6.07;;
313;SDS011;143;51.634;7.112;2023-11-19T03:20:56;27.40;;;6.43;;
313;SDS011;143;51.634;7.112;2023-11-19T03:23:23;17.87;;;6.50;;
313;SDS011;143;51.634;7.112;2023-11-19T03:25:49;18.97;;;6.40;;
313;SDS011;143;51.634;7.112;2023-11-19T03:28:14;18.40;;;6.27;;
313;SDS011;143;51.634;7.112;2023-11-19T03:30:40;16.33;;;6.10;;
313;SDS011;143;51.634;7.112;2023-11-19T03:33:06;12.77;;;5.00;;
313;SDS011;143;51.634;7.112;2023-11-19T03:35:31;14.83;;;5.80;;
313;SDS011;143;51.634;7.112;2023-11-19T03:37:58;15.00;;;6.20;;
313;SDS011;143;51.634;7.112;2023-11-19T03:40:23;11.67;;;4.50;;
313;SDS011;143;51.634;7.112;2023-11-19T03:42:50;21.90;;;5.20;;
313;SDS011;143;51.634;7.112;2023-11-19T03:45:15;16.00;;;5.10;;
313;SDS011;143;51.634;7.112;2023-11-19T03:47:41;11.23;;;4.73;;
313;SDS011;143;51.634;7.112;2023-11-19T03:50:07;16.13;;;4.30;;
313;SDS011;143;51.634;7.112;2023-11-19T03:52:35;21.77;;;5.53;;
313;SDS011;143;51.634;7.112;2023-11-19T03:55:01;12.47;;;3.67;;
313;SDS011;143;51.634;7.112;2023-11-19T03:57:30;13.23;;;4.43;;
313;SDS011;143;51.634;7.112;2023-11-19T03:59:56;26.27;;;4.53;;
313;SDS011;143;51.634;7.112;2023-11-19T04:02:23;21.40;;;5.57;;
313;SDS011;143;51.634;7.112;2023-11-19T04:04:52;17.80;;;3.70;;
313;SDS011;143;51.634;7.112;2023-11-19T04:07:18;22.43;;;4.60;;
313;SDS011;143;51.634;7.112;2023-11-19T04:09:44;18.77;;;4.90;;
313;SDS011;143;51.634;7.112;2023-11-19T04:12:11;18.13;;;4.50;;
313;SDS011;143;51.634;7.112;2023-11-19T04:14:37;27.07;;;5.20;;
313;SDS011;143;51.634;7.112;2023-11-19T04:17:02;25.70;;;4.73;;
313;SDS011;143;51.634;7.112;2023-11-19T04:19:28;31.13;;;5.10;;
313;SDS011;143;51.634;7.112;2023-11-19T04:21:54;18.53;;;4.83;;
313;SDS011;143;51.634;7.112;2023-11-19T04:24:19;20.93;;;4.30;;
313;SDS011;143;51.634;7.112;2023-11-19T04:26:45;21.93;;;4.10;;
313;SDS011;143;51.634;7.112;2023-11-19T04:29:15;20.30;;;4.30;;
313;SDS011;143;51.634;7.112;2023-11-19T04:31:42;29.23;;;4.63;;
313;SDS011;143;51.634;7.112;2023-11-19T04:34:08;19.17;;;4.40;;
313;SDS011;143;51.634;7.112;2023-11-19T04:36:33;27.73;;;4.77;;
313;SDS011;143;51.634;7.112;2023-11-19T04:38:59;19.10;;;4.80;;
313;SDS011;143;51.634;7.112;2023-11-19T04:41:26;44.30;;;4.40;;
313;SDS011;143;51.634;7.112;2023-11-19T04:43:54;22.40;;;4.13;;
313;SDS011;143;51.634;7.112;2023-11-19T04:46:20;21.37;;;4.47;;
313;SDS011;143;51.634;7.112;2023-11-19T04:48:46;19.97;;;3.60;;
313;SDS011;143;51.634;7.112;2023-11-19T04:51:11;13.53;;;4.03;;
313;SDS011;143;51.634;7.112;2023-11-19T04:53:37;20.83;;;5.30;;
313;SDS011;143;51.634;7.112;2023-11-19T04:56:09;32.13;;;5.53;;
313;SDS011;143;51.634;7.112;2023-11-19T04:58:38;34.17;;;5.07;;
313;SDS011;143;51.634;7.112;2023-11-19T05:01:04;28.53;;;4.70;;
313;SDS011;143;51.634;7.112;2023-11-19T05:03:32;25.67;;;5.00;;
313;SDS011;143;51.634;7.112;2023-11-19T05:05:58;26.23;;;4.80;;
313;SDS011;143;51.634;7.112;2023-11-19T05:08:24;19.40;;;4.07;;
313;SDS011;143;51.634;7.112;2023-11-19T05:10:49;26.47;;;5.60;;
313;SDS011;143;51.634;7.112;2023-11-19T05:13:15;33.97;;;5.50;;
313;SDS011;143;51.634;7.112;2023-11-19T05:15:41;34.07;;;5.50;;
313;SDS011;143;51.634;7.112;2023-11-19T05:18:07;29.27;;;5.07;;
313;SDS011;143;51.634;7.112;2023-11-19T05:20:33;23.53;;;4.60;;
313;SDS011;143;51.634;7.112;2023-11-19T05:22:59;30.93;;;4.73;;
313;SDS011;143;51.634;7.112;2023-11-19T05:25:25;28.90;;;5.67;;
313;SDS011;143;51.634;7.112;2023-11-19T05:27:51;27.60;;;4.80;;
313;SDS011;143;51.634;7.112;2023-11-19T05:30:17;37.50;;;5.63;;
313;SDS011;143;51.634;7.112;2023-11-19T05:32:43;34.83;;;5.30;;
313;SDS011;143;51.634;7.112;2023-11-19T05:35:08;31.97;;;6.17;;
313;SDS011;143;51.634;7.112;2023-11-19T05:37:34;35.63;;;5.80;;
313;SDS011;143;51.634;7.112;2023-11-19T05:39:59;37.10;;;6.23;;
313;SDS011;143;51.634;7.112;2023-11-19T05:42:28;30.13;;;5.43;;
313;SDS011;143;51.634;7.112;2023-11-19T05:44:53;47.57;;;9.00;;
313;SDS011;143;51.634;7.112;2023-11-19T05:47:19;22.93;;;5.90;;
313;SDS011;143;51.634;7.112;2023-11-19T05:49:44;36.47;;;5.67;;
313;SDS011;143;51.634;7.112;2023-11-19T05:52:10;36.17;;;5.47;;
313;SDS011;143;51.634;7.112;2023-11-19T05:54:37;31.93;;;5.03;;
313;SDS011;143;51.634;7.112;2023-11-19T05:57:04;30.43;;;6.20;;
313;SDS011;143;51.634;7.112;2023-11-19T05:59:30;30.33;;;5.40;;
313;SDS011;143;51.634;7.112;2023-11-19T06:01:58;36.10;;;6.00;;
313;SDS011;143;51.634;7.112;2023-11-19T06:04:23;26.70;;;5.30;;
313;SDS011;143;51.634;7.112;2023-11-19T06:06:49;38.13;;;7.80;;
313;SDS011;143;51.634;7.112;2023-11-19T06:09:14;24.40;;;6.07;;
313;SDS011;143;51.634;7.112;2023-11-19T06:11:40;20.93;;;4.80;;
313;SDS011;143;51.634;7.112;2023-11-19T06:14:06;49.93;;;6.20;;
313;SDS011;143;51.634;7.112;2023-11-19T06:16:32;27.23;;;5.67;;
313;SDS011;143;51.634;7.112;2023-11-19T06:18:58;45.57;;;5.70;;
313;SDS011;143;51.634;7.112;2023-11-19T06:21:23;46.97;;;5.77;;
313;SDS011;143;51.634;7.112;2023-11-19T06:23:49;26.97;;;4.70;;
313;SDS011;143;51.634;7.112;2023-11-19T06:26:17;34.20;;;6.90;;
313;SDS011;143;51.634;7.112;2023-11-19T06:28:43;26.40;;;5.43;;
313;SDS011;143;51.634;7.112;2023-11-19T06:31:09;34.43;;;4.80;;
313;SDS011;143;51.634;7.112;2023-11-19T06:33:34;35.93;;;6.40;;
313;SDS011;143;51.634;7.112;2023-11-19T06:36:00;29.57;;;5.90;;
313;SDS011;143;51.634;7.112;2023-11-19T06:38:25;33.77;;;5.50;;
313;SDS011;143;51.634;7.112;2023-11-19T06:40:51;32.17;;;6.40;;
313;SDS011;143;51.634;7.112;2023-11-19T06:43:16;40.03;;;6.80;;
313;SDS011;143;51.634;7.112;2023-11-19T06:45:42;25.07;;;5.43;;
313;SDS011;143;51.634;7.112;2023-11-19T06:48:08;53.93;;;7.17;;
313;SDS011;143;51.634;7.112;2023-11-19T06:50:34;46.20;;;5.90;;
313;SDS011;143;51.634;7.112;2023-11-19T06:52:59;20.83;;;4.20;;
313;SDS011;143;51.634;7.112;2023-11-19T06:55:26;25.93;;;4.90;;
313;SDS011;143;51.634;7.112;2023-11-19T06:57:51;47.37;;;6.83;;
313;SDS011;143;51.634;7.112;2023-11-19T07:00:17;48.33;;;6.33;;
313;SDS011;143;51.634;7.112;2023-11-19T07:02:43;27.33;;;5.40;;
313;SDS011;143;51.634;7.112;2023-11-19T07:05:09;28.53;;;6.00;;
313;SDS011;143;51.634;7.112;2023-11-19T07:07:35;31.77;;;5.27;;
313;SDS011;143;51.634;7.112;2023-11-19T07:10:00;36.43;;;7.10;;
313;SDS011;143;51.634;7.112;2023-11-19T07:12:27;38.00;;;5.60;;
313;SDS011;143;51.634;7.112;2023-11-19T07:14:53;31.43;;;5.87;;
313;SDS011;143;51.634;7.112;2023-11-19T07:17:20;26.37;;;6.20;;
313;SDS011;143;51.634;7.112;2023-11-19T07:19:46;32.63;;;5.63;;
313;SDS011;143;51.634;7.112;2023-11-19T07:22:14;41.37;;;5.90;;
313;SDS011;143;51.634;7.112;2023-11-19T07:24:40;28.17;;;6.30;;
313;SDS011;143;51.634;7.112;2023-11-19T07:27:06;26.30;;;6.30;;
313;SDS011;143;51.634;7.112;2023-11-19T07:29:33;35.33;;;6.20;;
313;SDS011;143;51.634;7.112;2023-11-19T07:31:59;34.50;;;5.80;;
313;SDS011;143;51.634;7.112;2023-11-19T07:34:26;42.87;;;6.57;;
313;SDS011;143;51.634;7.112;2023-11-19T07:36:52;34.70;;;5.03;;
313;SDS011;143;51.634;7.112;2023-11-19T07:39:18;44.37;;;7.80;;
313;SDS011;143;51.634;7.112;2023-11-19T07:41:45;38.03;;;6.37;;
313;SDS011;143;51.634;7.112;2023-11-19T07:44:11;40.17;;;7.37;;
313;SDS011;143;51.634;7.112;2023-11-19T07:46:36;30.70;;;7.50;;
313;SDS011;143;51.634;7.112;2023-11-19T07:49:02;35.30;;;5.70;;
313;SDS011;143;51.634;7.112;2023-11-19T07:51:28;24.30;;;4.50;;
313;SDS011;143;51.634;7.112;2023-11-19T07:53:53;31.37;;;5.47;;
313;SDS011;143;51.634;7.112;2023-11-19T07:56:19;40.13;;;6.87;;
313;SDS011;143;51.634;7.112;2023-11-19T07:58:44;29.13;;;5.47;;
313;SDS011;143;51.634;7.112;2023-11-19T08:01:10;44.37;;;6.23;;
313;SDS011;143;51.634;7.112;2023-11-19T08:03:35;33.27;;;6.03;;
313;SDS011;143;51.634;7.112;2023-11-19T08:06:01;37.43;;;6.93;;
313;SDS011;143;51.634;7.112;2023-11-19T08:08:27;43.17;;;8.07;;
313;SDS011;143;51.634;7.112;2023-11-19T08:10:55;30.40;;;5.60;;
313;SDS011;143;51.634;7.112;2023-11-19T08:13:21;44.17;;;6.63;;
313;SDS011;143;51.634;7.112;2023-11-19T08:15:48;31.57;;;5.03;;
313;SDS011;143;51.634;7.112;2023-11-19T08:18:14;43.30;;;7.23;;
313;SDS011;143;51.634;7.112;2023-11-19T08:20:39;28.50;;;5.97;;
313;SDS011;143;51.634;7.112;2023-11-19T08:23:06;29.00;;;5.77;;
313;SDS011;143;51.634;7.112;2023-11-19T08:25:32;43.97;;;7.57;;
313;SDS011;143;51.634;7.112;2023-11-19T08:27:58;30.73;;;5.47;;
313;SDS011;143;51.634;7.112;2023-11-19T08:30:25;34.00;;;5.87;;
313;SDS011;143;51.634;7.112;2023-11-19T08:32:50;45.70;;;7.33;;
313;SDS011;143;51.634;7.112;2023-11-19T08:35:16;49.20;;;7.10;;
313;SDS011;143;51.634;7.112;2023-11-19T08:37:41;37.13;;;5.43;;
313;SDS011;143;51.634;7.112;2023-11-19T08:40:07;29.43;;;6.20;;
313;SDS011;143;51.634;7.112;2023-11-19T08:42:33;36.97;;;7.00;;
313;SDS011;143;51.634;7.112;2023-11-19T08:44:58;39.73;;;7.17;;
313;SDS011;143;51.634;7.112;2023-11-19T08:47:24;46.13;;;7.30;;
313;SDS011;143;51.634;7.112;2023-11-19T08:49:53;34.70;;;5.30;;
313;SDS011;143;51.634;7.112;2023-11-19T08:52:20;33.17;;;8.00;;
313;SDS011;143;51.634;7.112;2023-11-19T08:54:45;36.73;;;5.90;;
313;SDS011;143;51.634;7.112;2023-11-19T08:57:11;39.83;;;7.03;;
313;SDS011;143;51.634;7.112;2023-11-19T08:59:36;32.87;;;6.80;;
313;SDS011;143;51.634;7.112;2023-11-19T09:02:05;39.03;;;7.53;;
313;SDS011;143;51.634;7.112;2023-11-19T09:04:31;33.93;;;5.70;;
313;SDS011;143;51.634;7.112;2023-11-19T09:06:57;38.50;;;5.40;;
313;SDS011;143;51.634;7.112;2023-11-19T09:09:23;23.23;;;5.20;;
313;SDS011;143;51.634;7.112;2023-11-19T09:11:49;50.20;;;6.50;;
313;SDS011;143;51.634;7.112;2023-11-19T09:14:14;45.40;;;6.33;;
313;SDS011;143;51.634;7.112;2023-11-19T09:16:40;35.57;;;6.60;;
313;SDS011;143;51.634;7.112;2023-11-19T09:19:06;45.53;;;6.63;;
313;SDS011;143;51.634;7.112;2023-11-19T09:21:31;45.43;;;5.80;;
313;SDS011;143;51.634;7.112;2023-11-19T09:23:59;27.37;;;5.83;;
313;SDS011;143;51.634;7.112;2023-11-19T09:26:25;28.70;;;5.63;;
313;SDS011;143;51.634;7.112;2023-11-19T09:28:50;55.57;;;7.00;;
313;SDS011;143;51.634;7.112;2023-11-19T09:31:17;33.83;;;6.23;;
313;SDS011;143;51.634;7.112;2023-11-19T09:33:43;41.43;;;5.87;;
313;SDS011;143;51.634;7.112;2023-11-19T09:36:09;36.50;;;6.43;;
313;SDS011;143;51.634;7.112;2023-11-19T09:38:38;36.30;;;5.40;;
313;SDS011;143;51.634;7.112;2023-11-19T09:41:07;29.23;;;6.20;;
313;SDS011;143;51.634;7.112;2023-11-19T09:43:37;29.80;;;6.40;;
313;SDS011;143;51.634;7.112;2023-11-19T09:46:04;27.43;;;5.10;;
313;SDS011;143;51.634;7.112;2023-11-19T09:48:35;36.90;;;6.30;;
313;SDS011;143;51.634;7.112;2023-11-19T09:51:02;39.13;;;5.80;;
313;SDS011;143;51.634;7.112;2023-11-19T09:53:29;26.83;;;5.80;;
313;SDS011;143;51.634;7.112;2023-11-19T09:55:55;39.90;;;5.50;;
313;SDS011;143;51.634;7.112;2023-11-19T09:58:21;33.77;;;6.90;;
313;SDS011;143;51.634;7.112;2023-11-19T10:00:47;42.10;;;6.30;;
313;SDS011;143;51.634;7.112;2023-11-19T10:03:13;33.50;;;7.23;;
313;SDS011;143;51.634;7.112;2023-11-19T10:05:39;38.97;;;6.50;;
313;SDS011;143;51.634;7.112;2023-11-19T10:08:05;38.30;;;5.93;;
313;SDS011;143;51.634;7.112;2023-11-19T10:10:32;32.90;;;5.97;;
313;SDS011;143;51.634;7.112;2023-11-19T10:12:59;41.37;;;6.93;;
313;SDS011;143;51.634;7.112;2023-11-19T10:15:25;38.63;;;5.80;;
313;SDS011;143;51.634;7.112;2023-11-19T10:17:51;25.90;;;5.37;;
313;SDS011;143;51.634;7.112;2023-11-19T10:20:20;33.70;;;6.50;;
313;SDS011;143;51.634;7.112;2023-11-19T10:22:45;28.23;;;5.07;;
313;SDS011;143;51.634;7.112;2023-11-19T10:25:27;41.47;;;6.63;;
313;SDS011;143;51.634;7.112;2023-11-19T10:27:53;38.03;;;5.77;;
313;SDS011;143;51.634;7.112;2023-11-19T10:30:23;34.33;;;5.90;;
313;SDS011;143;51.634;7.112;2023-11-19T10:35:33;29.23;;;5.20;;
313;SDS011;143;51.634;7.112;2023-11-19T10:38:00;35.23;;;6.23;;
313;SDS011;143;51.634;7.112;2023-11-19T10:40:39;41.03;;;6.70;;
313;SDS011;143;51.634;7.112;2023-11-19T10:43:05;44.07;;;7.73;;
313;SDS011;143;51.634;7.112;2023-11-19T10:45:32;34.70;;;5.60;;
313;SDS011;143;51.634;7.112;2023-11-19T10:47:58;34.50;;;5.73;;
313;SDS011;143;51.634;7.112;2023-11-19T10:50:25;33.83;;;6.60;;
313;SDS011;143;51.634;7.112;2023-11-19T10:52:53;34.17;;;7.07;;
313;SDS011;143;51.634;7.112;2023-11-19T10:55:26;24.23;;;4.33;;
313;SDS011;143;51.634;7.112;2023-11-19T10:57:56;40.93;;;6.10;;
313;SDS011;143;51.634;7.112;2023-11-19T11:00:34;29.13;;;5.33;;
313;SDS011;143;51.634;7.112;2023-11-19T11:03:19;35.63;;;6.57;;
313;SDS011;143;51.634;7.112;2023-11-19T11:05:47;40.60;;;6.50;;
313;SDS011;143;51.634;7.112;2023-11-19T11:08:15;27.03;;;6.60;;
313;SDS011;143;51.634;7.112;2023-11-19T11:10:54;32.43;;;5.60;;
313;SDS011;143;51.634;7.112;2023-11-19T11:13:24;30.53;;;5.40;;
313;SDS011;143;51.634;7.112;2023-11-19T11:15:52;34.77;;;5.80;;
313;SDS011;143;51.634;7.112;2023-11-19T11:18:21;38.20;;;6.80;;
313;SDS011;143;51.634;7.112;2023-11-19T11:20:47;37.50;;;5.80;;
313;SDS011;143;51.634;7.112;2023-11-19T11:36:53;31.67;;;6.60;;
313;SDS011;143;51.634;7.112;2023-11-19T11:39:22;46.63;;;5.83;;
313;SDS011;143;51.634;7.112;2023-11-19T11:42:18;26.73;;;4.77;;
313;SDS011;143;51.634;7.112;2023-11-19T11:45:01;21.43;;;5.17;;
313;SDS011;143;51.634;7.112;2023-11-19T11:53:23;43.83;;;6.47;;
313;SDS011;143;51.634;7.112;2023-11-19T11:55:24;31.17;;;5.97;;
313;SDS011;143;51.634;7.112;2023-11-19T11:57:49;47.40;;;5.17;;
313;SDS011;143;51.634;7.112;2023-11-19T12:00:21;27.53;;;4.90;;
313;SDS011;143;51.634;7.112;2023-11-19T12:02:48;32.87;;;5.80;;
313;SDS011;143;51.634;7.112;2023-11-19T12:05:14;28.73;;;5.10;;
313;SDS011;143;51.634;7.112;2023-11-19T12:07:40;27.50;;;5.17;;
313;SDS011;143;51.634;7.112;2023-11-19T12:10:06;28.00;;;4.90;;
313;SDS011;143;51.634;7.112;2023-11-19T12:12:33;33.53;;;4.80;;
313;SDS011;143;51.634;7.112;2023-11-19T12:15:07;24.83;;;4.37;;
313;SDS011;143;51.634;7.112;2023-11-19T12:17:37;27.90;;;4.77;;
313;SDS011;143;51.634;7.112;2023-11-19T12:20:06;35.33;;;6.60;;
313;SDS011;143;51.634;7.112;2023-11-19T12:22:39;29.10;;;5.27;;
313;SDS011;143;51.634;7.112;2023-11-19T12:25:06;29.63;;;5.10;;
313;SDS011;143;51.634;7.112;2023-11-19T12:27:37;33.17;;;4.47;;
313;SDS011;143;51.634;7.112;2023-11-19T12:30:08;22.53;;;5.30;;
313;SDS011;143;51.634;7.112;2023-11-19T12:32:46;24.10;;;4.53;;
313;SDS011;143;51.634;7.112;2023-11-19T12:35:12;39.20;;;5.57;;
313;SDS011;143;51.634;7.112;2023-11-19T12:37:44;23.57;;;5.47;;
313;SDS011;143;51.634;7.112;2023-11-19T12:40:15;23.10;;;4.03;;
313;SDS011;143;51.634;7.112;2023-11-19T12:42:51;25.27;;;4.77;;
313;SDS011;143;51.634;7.112;2023-11-19T12:45:18;26.80;;;5.00;;
313;SDS011;143;51.634;7.112;2023-11-19T12:47:45;18.57;;;4.40;;
313;SDS011;143;51.634;7.112;2023-11-19T12:50:17;47.40;;;5.43;;
313;SDS011;143;51.634;7.112;2023-11-19T12:52:47;33.87;;;4.83;;
313;SDS011;143;51.634;7.112;2023-11-19T12:55:29;27.27;;;5.50;;
313;SDS011;143;51.634;7.112;2023-11-19T12:57:55;23.30;;;4.70;;
313;SDS011;143;51.634;7.112;2023-11-19T13:00:21;27.30;;;4.67;;
313;SDS011;143;51.634;7.112;2023-11-19T13:02:49;24.00;;;4.70;;
313;SDS011;143;51.634;7.112;2023-11-19T13:05:32;20.20;;;3.63;;
313;SDS011;143;51.634;7.112;2023-11-19T13:08:08;22.90;;;4.20;;
313;SDS011;143;51.634;7.112;2023-11-19T13:10:55;36.70;;;5.10;;
313;SDS011;143;51.634;7.112;2023-11-19T13:13:20;23.57;;;3.80;;
313;SDS011;143;51.634;7.112;2023-11-19T13:15:45;25.63;;;5.27;;
313;SDS011;143;51.634;7.112;2023-11-19T13:18:11;29.43;;;5.20;;
313;SDS011;143;51.634;7.112;2023-11-19T13:20:37;25.03;;;5.30;;
313;SDS011;143;51.634;7.112;2023-11-19T13:23:04;24.30;;;6.23;;
313;SDS011;143;51.634;7.112;2023-11-19T13:25:30;28.33;;;5.93;;
313;SDS011;143;51.634;7.112;2023-11-19T13:27:57;35.70;;;5.80;;
313;SDS011;143;51.634;7.112;2023-11-19T13:30:22;25.27;;;4.83;;
313;SDS011;143;51.634;7.112;2023-11-19T13:32:49;26.90;;;4.33;;
313;SDS011;143;51.634;7.112;2023-11-19T13:35:15;30.90;;;5.00;;
313;SDS011;143;51.634;7.112;2023-11-19T13:37:42;23.67;;;4.47;;
313;SDS011;143;51.634;7.112;2023-11-19T13:40:08;28.47;;;5.10;;
313;SDS011;143;51.634;7.112;2023-11-19T13:42:35;19.73;;;4.13;;
313;SDS011;143;51.634;7.112;2023-11-19T13:45:02;29.83;;;6.00;;
313;SDS011;143;51.634;7.112;2023-11-19T13:47:28;23.33;;;3.90;;
313;SDS011;143;51.634;7.112;2023-11-19T13:49:54;20.80;;;3.47;;
313;SDS011;143;51.634;7.112;2023-11-19T13:52:19;34.93;;;5.67;;
313;SDS011;143;51.634;7.112;2023-11-19T13:54:45;23.40;;;4.53;;
313;SDS011;143;51.634;7.112;2023-11-19T13:57:10;24.23;;;5.77;;
313;SDS011;143;51.634;7.112;2023-11-19T13:59:39;21.93;;;4.03;;
313;SDS011;143;51.634;7.112;2023-11-19T14:02:05;24.80;;;4.90;;
313;SDS011;143;51.634;7.112;2023-11-19T14:04:32;36.73;;;6.10;;
313;SDS011;143;51.634;7.112;2023-11-19T14:06:58;24.63;;;4.40;;
313;SDS011;143;51.634;7.112;2023-11-19T14:09:23;28.43;;;5.17;;
313;SDS011;143;51.634;7.112;2023-11-19T14:11:49;23.03;;;5.00;;
313;SDS011;143;51.634;7.112;2023-11-19T14:14:16;25.67;;;4.57;;
313;SDS011;143;51.634;7.112;2023-11-19T14:16:41;21.87;;;4.33;;
313;SDS011;143;51.634;7.112;2023-11-19T14:19:07;19.90;;;4.83;;
313;SDS011;143;51.634;7.112;2023-11-19T14:21:33;26.50;;;4.10;;
313;SDS011;143;51.634;7.112;2023-11-19T14:23:58;24.53;;;4.97;;
313;SDS011;143;51.634;7.112;2023-11-19T14:26:24;24.43;;;4.63;;
313;SDS011;143;51.634;7.112;2023-11-19T14:28:49;40.07;;;4.40;;
313;SDS011;143;51.634;7.112;2023-11-19T14:31:15;24.00;;;5.40;;
313;SDS011;143;51.634;7.112;2023-11-19T14:33:40;26.70;;;5.30;;
313;SDS011;143;51.634;7.112;2023-11-19T14:36:06;32.47;;;4.40;;
313;SDS011;143;51.634;7.112;2023-11-19T14:38:32;22.33;;;4.17;;
313;SDS011;143;51.634;7.112;2023-11-19T14:40:58;18.30;;;3.60;;
313;SDS011;143;51.634;7.112;2023-11-19T14:43:24;26.57;;;4.20;;
313;SDS011;143;51.634;7.112;2023-11-19T14:45:50;31.47;;;4.93;;
313;SDS011;143;51.634;7.112;2023-11-19T14:48:16;21.13;;;5.20;;
313;SDS011;143;51.634;7.112;2023-11-19T14:50:42;17.37;;;5.63;;
313;SDS011;143;51.634;7.112;2023-11-19T14:53:09;24.57;;;4.80;;
313;SDS011;143;51.634;7.112;2023-11-19T14:55:35;20.83;;;4.90;;
313;SDS011;143;51.634;7.112;2023-11-19T14:58:01;18.57;;;4.20;;
313;SDS011;143;51.634;7.112;2023-11-19T15:00:27;23.67;;;4.80;;
313;SDS011;143;51.634;7.112;2023-11-19T15:02:52;16.43;;;4.53;;
313;SDS011;143;51.634;7.112;2023-11-19T15:05:18;26.13;;;4.23;;
313;SDS011;143;51.634;7.112;2023-11-19T15:07:44;34.23;;;4.50;;
313;SDS011;143;51.634;7.112;2023-11-19T15:10:10;23.03;;;5.30;;
313;SDS011;143;51.634;7.112;2023-11-19T15:12:37;26.43;;;4.30;;
313;SDS011;143;51.634;7.112;2023-11-19T15:15:05;19.40;;;4.10;;
313;SDS011;143;51.634;7.112;2023-11-19T15:17:32;26.93;;;4.50;;
313;SDS011;143;51.634;7.112;2023-11-19T15:19:58;27.57;;;4.97;;
313;SDS011;143;51.634;7.112;2023-11-19T15:22:24;25.43;;;3.60;;
313;SDS011;143;51.634;7.112;2023-11-19T15:24:49;18.73;;;4.60;;
313;SDS011;143;51.634;7.112;2023-11-19T15:27:15;27.13;;;5.40;;
313;SDS011;143;51.634;7.112;2023-11-19T15:29:40;22.27;;;3.90;;
313;SDS011;143;51.634;7.112;2023-11-19T15:32:06;25.20;;;5.20;;
313;SDS011;143;51.634;7.112;2023-11-19T15:34:34;17.23;;;3.70;;
313;SDS011;143;51.634;7.112;2023-11-19T15:37:02;21.50;;;3.67;;
313;SDS011;143;51.634;7.112;2023-11-19T15:39:29;19.00;;;4.73;;
313;SDS011;143;51.634;7.112;2023-11-19T15:41:54;27.67;;;4.43;;
313;SDS011;143;51.634;7.112;2023-11-19T15:44:20;21.43;;;4.80;;
313;SDS011;143;51.634;7.112;2023-11-19T15:46:46;26.27;;;4.30;;